Webcam Flughafen St.Gallen-Altenrhein

Live-Bilder und Zeitraffer LSZR / ACH.

 

Live aus Altenrhein
LIVE
LSZR 180920Z VRB01KT 9999 FEW080 BKN100 04/02 Q1010 NOSIG RMK F
Zeitraffer heute
2019-11-18 00:13:51
LSZR 172250Z AUTO 26007KT 230V290 9999 BKN027 05/01 Q1005